Impacts METAR Board
IDs:

KEWR - Newark Intl, NJ, US

Updated at: 0700 UTC 20 Oct 2018
Potential Impact None Slight Moderate High
Time 19/19Z 19/20Z 19/21Z 19/22Z 19/23Z 20/00Z 20/01Z 20/02Z 20/03Z 20/04Z 20/05Z 20/06Z 20/07Z
Temp60 59 58 57 56 55 55 55 56 56 56 56 55
Dewpt34 33 34 38 40 42 44 43 42 44 45 46 46
Altim30.12 30.09 30.07 30.05 30.04 30.04 29.99 29.99 29.95 29.92 29.87 29.85 29.84
VIS10 10 10 10 10 10 10 10 10 10 10 10 10
CIG250 250 250 180 210 220 190 170 180 180 130 100 85
CoverBKNBKNBKNBKNBKNBKNBKNBKNBKNOVCOVCOVCOVC
FltCatVFRVFRVFRVFRVFRVFRVFRVFRVFRVFRVFRVFRVFR
WX-------------------------RA
WDir230230220200190190180200200200200210230
WSpd15 12 12 12 11 10 10 12 13 11 15 11 7
WGst-- -- 19 -- -- -- -- -- -- 17 -- -- --
Raw hourly METARs
KEWR 191851Z 23015KT 10SM BKN250 16/01 A3012 RMK AO2 SLP200 T01560011
KEWR 191951Z 23012KT 10SM BKN250 15/01 A3009 RMK AO2 SLP187 T01500006
KEWR 192051Z 22012G19KT 10SM BKN250 14/01 A3007 RMK AO2 SLP183 T01440011 56030
KEWR 192151Z 20012KT 10SM BKN180 BKN250 14/03 A3005 RMK AO2 SLP175 T01390033
KEWR 192251Z 19011KT 10SM BKN210 BKN250 13/04 A3004 RMK AO2 SLP173 T01330044
KEWR 192351Z 19010KT 10SM FEW190 BKN220 BKN250 13/06 A3004 RMK AO2 SLP170 T01280056 10161 20128 56013
KEWR 200051Z 18010KT 10SM BKN190 BKN220 BKN250 13/07 A2999 RMK AO2 SLP155 T01280067 $
KEWR 200151Z 20012KT 10SM BKN170 BKN220 BKN250 13/06 A2999 RMK AO2 SLP155 T01280061 $
KEWR 200251Z 20013KT 10SM SCT160 BKN180 BKN250 13/06 A2995 RMK AO2 SLP141 T01330056 57029 $
KEWR 200351Z 20011G17KT 10SM SCT150 BKN180 OVC250 13/07 A2992 RMK AO2 SLP130 T01330067 $
KEWR 200451Z 20015KT 10SM SCT110 BKN130 OVC160 13/07 A2987 RMK AO2 SLP115 T01330072 401610017 $
KEWR 200551Z 21011KT 10SM BKN100 OVC130 13/08 A2985 RMK AO2 SLP107 T01330078 10133 20122 56033 $
KEWR 200651Z 23007KT 10SM -RA SCT042 BKN085 OVC110 13/08 A2984 RMK AO2 RAB18 SLP103 P0000 T01280078 $



Page loaded:  07:41 UTC  |   12:41 AM Pacific  |   01:41 AM Mountain  |   02:41 AM Central  |   03:41 AM Eastern

 

ADVISORIES

FORECASTS

FORECASTS

OBSERVATIONS

USER TOOLS

ABOUT US